N208TC TNCE-TJSJ
Flight info
| Callsign | N208TC |
|---|---|
| Flight time | 1h 21m |
| Altitude | 10500 |
| Route | VFR |
| Aircraft | C208/M-G/L |
Departure
| Time | 2026-05-05 02:07 |
|---|---|
| Airport | F. D. Roosevelt Airport (TNCE) |
Arrival
| Time | 2026-05-05 03:29 |
|---|---|
| Airport | Luis Munoz Marin International Airport (TJSJ) |
| Time | Latitude | Longitude | Altitude | Speed | Heading |
|---|---|---|---|---|---|
| 2026-05-05 02:07 | 17.74173 | -63.04033 | 9481 ft | 130 kts | 349° |
| 2026-05-05 02:07 | 17.75053 | -63.04264 | 9706 ft | 132 kts | 349° |
| 2026-05-05 02:07 | 17.75941 | -63.04496 | 9913 ft | 134 kts | 348° |
| 2026-05-05 02:08 | 17.76854 | -63.04736 | 10125 ft | 135 kts | 348° |
| 2026-05-05 02:08 | 17.77771 | -63.04977 | 10326 ft | 137 kts | 348° |
| 2026-05-05 02:08 | 17.78710 | -63.05223 | 10467 ft | 142 kts | 348° |
| 2026-05-05 02:08 | 17.79695 | -63.05481 | 10520 ft | 151 kts | 348° |
| 2026-05-05 02:09 | 17.80731 | -63.05753 | 10524 ft | 159 kts | 348° |
| 2026-05-05 02:09 | 17.81827 | -63.06040 | 10519 ft | 165 kts | 348° |
| 2026-05-05 02:09 | 17.82955 | -63.06337 | 10515 ft | 169 kts | 348° |
| 2026-05-05 02:09 | 17.84102 | -63.06639 | 10512 ft | 171 kts | 348° |
| 2026-05-05 02:10 | 17.85256 | -63.06943 | 10506 ft | 170 kts | 347° |
| 2026-05-05 02:10 | 17.86405 | -63.07245 | 10500 ft | 170 kts | 347° |
| 2026-05-05 02:10 | 17.87555 | -63.07548 | 10499 ft | 170 kts | 348° |
| 2026-05-05 02:10 | 17.88691 | -63.07847 | 10499 ft | 170 kts | 348° |
| 2026-05-05 02:11 | 17.89842 | -63.08150 | 10500 ft | 171 kts | 348° |
| 2026-05-05 02:11 | 17.90988 | -63.08451 | 10497 ft | 168 kts | 347° |
| 2026-05-05 02:11 | 17.92118 | -63.08749 | 10496 ft | 165 kts | 347° |
| 2026-05-05 02:11 | 17.93232 | -63.09041 | 10500 ft | 163 kts | 346° |
| 2026-05-05 02:12 | 17.94315 | -63.09325 | 10500 ft | 162 kts | 346° |
| 2026-05-05 02:12 | 17.96472 | -63.09894 | 10496 ft | 157 kts | 346° |
| 2026-05-05 02:12 | 17.97522 | -63.10170 | 10497 ft | 155 kts | 346° |
| 2026-05-05 02:13 | 17.98565 | -63.10445 | 10498 ft | 153 kts | 346° |
| 2026-05-05 02:13 | 17.99597 | -63.10717 | 10499 ft | 153 kts | 346° |
| 2026-05-05 02:13 | 18.00630 | -63.10989 | 10499 ft | 152 kts | 346° |
| 2026-05-05 02:13 | 18.01655 | -63.11259 | 10500 ft | 152 kts | 346° |
| 2026-05-05 02:14 | 18.02669 | -63.11526 | 10500 ft | 152 kts | 346° |
| 2026-05-05 02:14 | 18.03580 | -63.12047 | 10486 ft | 152 kts | 308° |
| 2026-05-05 02:14 | 18.03987 | -63.13053 | 10513 ft | 150 kts | 284° |
| 2026-05-05 02:14 | 18.04208 | -63.14133 | 10504 ft | 151 kts | 281° |
| 2026-05-05 02:15 | 18.04399 | -63.15222 | 10502 ft | 152 kts | 280° |
| 2026-05-05 02:15 | 18.04584 | -63.16308 | 10503 ft | 153 kts | 280° |
| 2026-05-05 02:15 | 18.04776 | -63.17429 | 10502 ft | 155 kts | 280° |
| 2026-05-05 02:15 | 18.04965 | -63.18533 | 10501 ft | 155 kts | 280° |
| 2026-05-05 02:16 | 18.05156 | -63.19655 | 10501 ft | 156 kts | 280° |
| 2026-05-05 02:16 | 18.05345 | -63.20756 | 10613 ft | 149 kts | 280° |
| 2026-05-05 02:16 | 18.05525 | -63.21805 | 10771 ft | 144 kts | 280° |
| 2026-05-05 02:16 | 18.05700 | -63.22828 | 10935 ft | 140 kts | 280° |
| 2026-05-05 02:17 | 18.05872 | -63.23832 | 11102 ft | 138 kts | 280° |
| 2026-05-05 02:17 | 18.06039 | -63.24808 | 11268 ft | 136 kts | 281° |
| 2026-05-05 02:17 | 18.06206 | -63.25784 | 11437 ft | 135 kts | 281° |
| 2026-05-05 02:17 | 18.06371 | -63.26752 | 11607 ft | 134 kts | 281° |
| 2026-05-05 02:18 | 18.06535 | -63.27712 | 11777 ft | 133 kts | 281° |
| 2026-05-05 02:18 | 18.06700 | -63.28672 | 11939 ft | 133 kts | 280° |
| 2026-05-05 02:18 | 18.06863 | -63.29626 | 12070 ft | 135 kts | 280° |
| 2026-05-05 02:18 | 18.07031 | -63.30608 | 12201 ft | 137 kts | 280° |
| 2026-05-05 02:19 | 18.07200 | -63.31601 | 12330 ft | 138 kts | 280° |
| 2026-05-05 02:19 | 18.07372 | -63.32604 | 12450 ft | 140 kts | 280° |
| 2026-05-05 02:19 | 18.07545 | -63.33620 | 12505 ft | 146 kts | 280° |
| 2026-05-05 02:19 | 18.07728 | -63.34693 | 12512 ft | 152 kts | 280° |
| 2026-05-05 02:20 | 18.07917 | -63.35799 | 12509 ft | 156 kts | 280° |
| 2026-05-05 02:20 | 18.08111 | -63.36934 | 12505 ft | 159 kts | 280° |
| 2026-05-05 02:20 | 18.08306 | -63.38081 | 12503 ft | 160 kts | 280° |
| 2026-05-05 02:20 | 18.08504 | -63.39244 | 12502 ft | 161 kts | 280° |
| 2026-05-05 02:21 | 18.08702 | -63.40405 | 12502 ft | 162 kts | 280° |
| 2026-05-05 02:21 | 18.08900 | -63.41568 | 12508 ft | 162 kts | 280° |
| 2026-05-05 02:21 | 18.09099 | -63.42736 | 12510 ft | 162 kts | 280° |
| 2026-05-05 02:21 | 18.09297 | -63.43902 | 12511 ft | 162 kts | 280° |
| 2026-05-05 02:22 | 18.09497 | -63.45074 | 12513 ft | 163 kts | 280° |
| 2026-05-05 02:22 | 18.09696 | -63.46247 | 12514 ft | 164 kts | 280° |
| 2026-05-05 02:22 | 18.09897 | -63.47428 | 12515 ft | 164 kts | 280° |
| 2026-05-05 02:22 | 18.10095 | -63.48594 | 12516 ft | 164 kts | 280° |
| 2026-05-05 02:23 | 18.10296 | -63.49776 | 12517 ft | 164 kts | 280° |
| 2026-05-05 02:23 | 18.10497 | -63.50958 | 12518 ft | 164 kts | 280° |
| 2026-05-05 02:23 | 18.10698 | -63.52140 | 12512 ft | 165 kts | 280° |
| 2026-05-05 02:23 | 18.10899 | -63.53326 | 12515 ft | 164 kts | 280° |
| 2026-05-05 02:24 | 18.11095 | -63.54481 | 12630 ft | 157 kts | 280° |
| 2026-05-05 02:24 | 18.11285 | -63.55604 | 12747 ft | 154 kts | 280° |
| 2026-05-05 02:24 | 18.11470 | -63.56698 | 12867 ft | 154 kts | 280° |
| 2026-05-05 02:24 | 18.11660 | -63.57807 | 12978 ft | 155 kts | 278° |
| 2026-05-05 02:25 | 18.11849 | -63.58927 | 13103 ft | 155 kts | 277° |
| 2026-05-05 02:25 | 18.12037 | -63.60042 | 13229 ft | 155 kts | 277° |
| 2026-05-05 02:25 | 18.12227 | -63.61167 | 13359 ft | 156 kts | 277° |
| 2026-05-05 02:25 | 18.12417 | -63.62286 | 13506 ft | 155 kts | 277° |
| 2026-05-05 02:26 | 18.12604 | -63.63395 | 13654 ft | 154 kts | 277° |
| 2026-05-05 02:26 | 18.12791 | -63.64500 | 13807 ft | 153 kts | 277° |
| 2026-05-05 02:26 | 18.12974 | -63.65579 | 13995 ft | 150 kts | 277° |
| 2026-05-05 02:26 | 18.13155 | -63.66653 | 14188 ft | 148 kts | 277° |
| 2026-05-05 02:27 | 18.13335 | -63.67717 | 14361 ft | 148 kts | 277° |
| 2026-05-05 02:27 | 18.13514 | -63.68782 | 14516 ft | 148 kts | 277° |
| 2026-05-05 02:27 | 18.13694 | -63.69849 | 14670 ft | 148 kts | 277° |
| 2026-05-05 02:27 | 18.13874 | -63.70920 | 14823 ft | 148 kts | 277° |
| 2026-05-05 02:28 | 18.14055 | -63.71989 | 14972 ft | 148 kts | 277° |
| 2026-05-05 02:28 | 18.14235 | -63.73059 | 15103 ft | 149 kts | 277° |
| 2026-05-05 02:28 | 18.14416 | -63.74137 | 15231 ft | 150 kts | 277° |
| 2026-05-05 02:28 | 18.14594 | -63.75194 | 15355 ft | 150 kts | 277° |
| 2026-05-05 02:29 | 18.14779 | -63.76291 | 15483 ft | 150 kts | 277° |
| 2026-05-05 02:29 | 18.14961 | -63.77374 | 15608 ft | 150 kts | 277° |
| 2026-05-05 02:29 | 18.15143 | -63.78453 | 15733 ft | 150 kts | 277° |
| 2026-05-05 02:29 | 18.15325 | -63.79533 | 15858 ft | 150 kts | 277° |
| 2026-05-05 02:30 | 18.15506 | -63.80611 | 15982 ft | 149 kts | 277° |
| 2026-05-05 02:30 | 18.15684 | -63.81672 | 16105 ft | 149 kts | 277° |
| 2026-05-05 02:30 | 18.15865 | -63.82744 | 16230 ft | 148 kts | 277° |
| 2026-05-05 02:30 | 18.16044 | -63.83813 | 16354 ft | 148 kts | 277° |
| 2026-05-05 02:31 | 18.16224 | -63.84885 | 16460 ft | 149 kts | 277° |
| 2026-05-05 02:31 | 18.16406 | -63.85973 | 16502 ft | 153 kts | 278° |
| 2026-05-05 02:31 | 18.16594 | -63.87095 | 16508 ft | 158 kts | 278° |
| 2026-05-05 02:31 | 18.16787 | -63.88248 | 16506 ft | 162 kts | 278° |
| 2026-05-05 02:32 | 18.16982 | -63.89407 | 16504 ft | 164 kts | 278° |
| 2026-05-05 02:32 | 18.17180 | -63.90591 | 16502 ft | 165 kts | 278° |
| 2026-05-05 02:32 | 18.17380 | -63.91784 | 16500 ft | 166 kts | 278° |
| 2026-05-05 02:32 | 18.17580 | -63.92976 | 16496 ft | 164 kts | 278° |
| 2026-05-05 02:33 | 18.17778 | -63.94153 | 16494 ft | 162 kts | 278° |
| 2026-05-05 02:33 | 18.17973 | -63.95318 | 16493 ft | 161 kts | 278° |
| 2026-05-05 02:33 | 18.18164 | -63.96458 | 16492 ft | 159 kts | 278° |
| 2026-05-05 02:33 | 18.18355 | -63.97598 | 16490 ft | 157 kts | 278° |
| 2026-05-05 02:34 | 18.18542 | -63.98727 | 16488 ft | 156 kts | 281° |
| 2026-05-05 02:34 | 18.18665 | -63.99480 | 16482 ft | 156 kts | 282° |
| 2026-05-05 02:34 | 18.18914 | -64.00968 | 16495 ft | 155 kts | 282° |
| 2026-05-05 02:34 | 18.19101 | -64.02085 | 16499 ft | 155 kts | 282° |
| 2026-05-05 02:35 | 18.19288 | -64.03197 | 16501 ft | 155 kts | 282° |
| 2026-05-05 02:35 | 18.19478 | -64.04309 | 16506 ft | 154 kts | 278° |
| 2026-05-05 02:35 | 18.19602 | -64.05045 | 16508 ft | 154 kts | 277° |
| 2026-05-05 02:35 | 18.19786 | -64.06155 | 16510 ft | 154 kts | 277° |
| 2026-05-05 02:36 | 18.20033 | -64.07647 | 16435 ft | 158 kts | 277° |
| 2026-05-05 02:36 | 18.20161 | -64.08421 | 16402 ft | 159 kts | 277° |
| 2026-05-05 02:36 | 18.20353 | -64.09576 | 16355 ft | 160 kts | 277° |
| 2026-05-05 02:36 | 18.20543 | -64.10719 | 16307 ft | 161 kts | 277° |
| 2026-05-05 02:37 | 18.20737 | -64.11884 | 16259 ft | 162 kts | 277° |
| 2026-05-05 02:37 | 18.20931 | -64.13050 | 16210 ft | 162 kts | 277° |
| 2026-05-05 02:37 | 18.21126 | -64.14225 | 16160 ft | 163 kts | 277° |
| 2026-05-05 02:37 | 18.21322 | -64.15401 | 16111 ft | 163 kts | 277° |
| 2026-05-05 02:38 | 18.21515 | -64.16563 | 16059 ft | 163 kts | 277° |
| 2026-05-05 02:38 | 18.21710 | -64.17736 | 15988 ft | 164 kts | 277° |
| 2026-05-05 02:38 | 18.21906 | -64.18919 | 15915 ft | 165 kts | 277° |
| 2026-05-05 02:38 | 18.22104 | -64.20112 | 15831 ft | 166 kts | 277° |
| 2026-05-05 02:39 | 18.22304 | -64.21318 | 15714 ft | 169 kts | 277° |
| 2026-05-05 02:39 | 18.22504 | -64.22541 | 15594 ft | 171 kts | 281° |
| 2026-05-05 02:39 | 18.22710 | -64.23784 | 15488 ft | 173 kts | 281° |
| 2026-05-05 02:39 | 18.22915 | -64.25012 | 15412 ft | 172 kts | 280° |
| 2026-05-05 02:40 | 18.23122 | -64.26256 | 15336 ft | 172 kts | 280° |
| 2026-05-05 02:40 | 18.23327 | -64.27490 | 15262 ft | 172 kts | 280° |
| 2026-05-05 02:40 | 18.23532 | -64.28728 | 15187 ft | 172 kts | 279° |
| 2026-05-05 02:40 | 18.23738 | -64.29970 | 15112 ft | 172 kts | 279° |
| 2026-05-05 02:41 | 18.23943 | -64.31211 | 15037 ft | 172 kts | 279° |
| 2026-05-05 02:41 | 18.24146 | -64.32437 | 14963 ft | 172 kts | 279° |
| 2026-05-05 02:41 | 18.24351 | -64.33682 | 14889 ft | 172 kts | 280° |
| 2026-05-05 02:41 | 18.24557 | -64.34925 | 14814 ft | 172 kts | 279° |
| 2026-05-05 02:42 | 18.24762 | -64.36169 | 14739 ft | 172 kts | 279° |
| 2026-05-05 02:42 | 18.24968 | -64.37414 | 14664 ft | 172 kts | 279° |
| 2026-05-05 02:42 | 18.25173 | -64.38662 | 14589 ft | 172 kts | 279° |
| 2026-05-05 02:42 | 18.25376 | -64.39890 | 14515 ft | 172 kts | 279° |
| 2026-05-05 02:43 | 18.25581 | -64.41134 | 14440 ft | 172 kts | 279° |
| 2026-05-05 02:43 | 18.25787 | -64.42382 | 14365 ft | 172 kts | 279° |
| 2026-05-05 02:43 | 18.25993 | -64.43627 | 14288 ft | 172 kts | 277° |
| 2026-05-05 02:43 | 18.26197 | -64.44856 | 14211 ft | 172 kts | 277° |
| 2026-05-05 02:44 | 18.26400 | -64.46096 | 14134 ft | 172 kts | 276° |
| 2026-05-05 02:44 | 18.26604 | -64.47336 | 14059 ft | 172 kts | 277° |
| 2026-05-05 02:44 | 18.26807 | -64.48577 | 13984 ft | 172 kts | 277° |
| 2026-05-05 02:44 | 18.27011 | -64.49823 | 13909 ft | 172 kts | 277° |
| 2026-05-05 02:45 | 18.27215 | -64.51066 | 13834 ft | 172 kts | 277° |
| 2026-05-05 02:45 | 18.27419 | -64.52310 | 13759 ft | 173 kts | 277° |
| 2026-05-05 02:45 | 18.27621 | -64.53542 | 13685 ft | 173 kts | 277° |
| 2026-05-05 02:45 | 18.27828 | -64.54799 | 13574 ft | 173 kts | 277° |
| 2026-05-05 02:46 | 18.28031 | -64.56036 | 13449 ft | 171 kts | 277° |
| 2026-05-05 02:46 | 18.28233 | -64.57267 | 13343 ft | 169 kts | 277° |
| 2026-05-05 02:46 | 18.28432 | -64.58485 | 13241 ft | 168 kts | 277° |
| 2026-05-05 02:46 | 18.28629 | -64.59685 | 13141 ft | 168 kts | 277° |
| 2026-05-05 02:47 | 18.28827 | -64.60893 | 13040 ft | 167 kts | 277° |
| 2026-05-05 02:47 | 18.29024 | -64.62101 | 12940 ft | 167 kts | 277° |
| 2026-05-05 02:47 | 18.29222 | -64.63309 | 12840 ft | 167 kts | 277° |
| 2026-05-05 02:47 | 18.29419 | -64.64517 | 12736 ft | 168 kts | 277° |
| 2026-05-05 02:48 | 18.29618 | -64.65732 | 12613 ft | 169 kts | 277° |
| 2026-05-05 02:48 | 18.29818 | -64.66958 | 12489 ft | 170 kts | 277° |
| 2026-05-05 02:48 | 18.30018 | -64.68182 | 12365 ft | 170 kts | 277° |
| 2026-05-05 02:48 | 18.30216 | -64.69410 | 12240 ft | 169 kts | 281° |
| 2026-05-05 02:49 | 18.30413 | -64.70626 | 12113 ft | 168 kts | 281° |
| 2026-05-05 02:49 | 18.30609 | -64.71818 | 11989 ft | 167 kts | 281° |
| 2026-05-05 02:49 | 18.30807 | -64.73028 | 11863 ft | 167 kts | 281° |
| 2026-05-05 02:49 | 18.31004 | -64.74232 | 11738 ft | 167 kts | 281° |
| 2026-05-05 02:50 | 18.31201 | -64.75438 | 11612 ft | 167 kts | 281° |
| 2026-05-05 02:50 | 18.31397 | -64.76640 | 11487 ft | 166 kts | 281° |
| 2026-05-05 02:50 | 18.31592 | -64.77835 | 11360 ft | 165 kts | 281° |
| 2026-05-05 02:50 | 18.31784 | -64.79017 | 11233 ft | 163 kts | 280° |
| 2026-05-05 02:51 | 18.31976 | -64.80194 | 11107 ft | 163 kts | 280° |
| 2026-05-05 02:51 | 18.32163 | -64.81348 | 10986 ft | 161 kts | 281° |
| 2026-05-05 02:51 | 18.32351 | -64.82504 | 10859 ft | 160 kts | 281° |
| 2026-05-05 02:51 | 18.32539 | -64.83662 | 10732 ft | 160 kts | 281° |
| 2026-05-05 02:52 | 18.32726 | -64.84812 | 10607 ft | 159 kts | 281° |
| 2026-05-05 02:52 | 18.32913 | -64.85962 | 10481 ft | 159 kts | 280° |
| 2026-05-05 02:52 | 18.33100 | -64.87114 | 10356 ft | 159 kts | 280° |
| 2026-05-05 02:52 | 18.33287 | -64.88264 | 10232 ft | 160 kts | 280° |
| 2026-05-05 02:53 | 18.33474 | -64.89417 | 10107 ft | 160 kts | 279° |
| 2026-05-05 02:53 | 18.33661 | -64.90573 | 9983 ft | 160 kts | 279° |
| 2026-05-05 02:53 | 18.33846 | -64.91711 | 9861 ft | 160 kts | 279° |
| 2026-05-05 02:53 | 18.34031 | -64.92859 | 9745 ft | 158 kts | 279° |
| 2026-05-05 02:54 | 18.34216 | -64.94000 | 9618 ft | 158 kts | 279° |
| 2026-05-05 02:54 | 18.34399 | -64.95136 | 9492 ft | 157 kts | 279° |
| 2026-05-05 02:54 | 18.34583 | -64.96268 | 9367 ft | 157 kts | 279° |
| 2026-05-05 02:54 | 18.34766 | -64.97400 | 9241 ft | 156 kts | 279° |
| 2026-05-05 02:55 | 18.34948 | -64.98526 | 9117 ft | 156 kts | 279° |
| 2026-05-05 02:55 | 18.35130 | -64.99657 | 8991 ft | 156 kts | 279° |
| 2026-05-05 02:55 | 18.35312 | -65.00782 | 8866 ft | 156 kts | 279° |
| 2026-05-05 02:55 | 18.35447 | -65.01910 | 8739 ft | 156 kts | 271° |
| 2026-05-05 02:56 | 18.35373 | -65.03045 | 8618 ft | 156 kts | 263° |
| 2026-05-05 02:56 | 18.35222 | -65.04176 | 8493 ft | 155 kts | 261° |
| 2026-05-05 02:56 | 18.35047 | -65.05299 | 8369 ft | 155 kts | 260° |
| 2026-05-05 02:56 | 18.34863 | -65.06406 | 8245 ft | 155 kts | 260° |
| 2026-05-05 02:57 | 18.34672 | -65.07525 | 8120 ft | 155 kts | 259° |
| 2026-05-05 02:57 | 18.34478 | -65.08643 | 7995 ft | 155 kts | 259° |
| 2026-05-05 02:57 | 18.34282 | -65.09760 | 7870 ft | 155 kts | 259° |
| 2026-05-05 02:57 | 18.34085 | -65.10877 | 7745 ft | 155 kts | 259° |
| 2026-05-05 02:58 | 18.33888 | -65.11994 | 7620 ft | 155 kts | 259° |
| 2026-05-05 02:58 | 18.33691 | -65.13106 | 7496 ft | 155 kts | 259° |
| 2026-05-05 02:58 | 18.33493 | -65.14219 | 7371 ft | 155 kts | 259° |
| 2026-05-05 02:58 | 18.33295 | -65.15332 | 7246 ft | 155 kts | 259° |
| 2026-05-05 02:59 | 18.33098 | -65.16443 | 7121 ft | 154 kts | 259° |
| 2026-05-05 02:59 | 18.32900 | -65.17556 | 6996 ft | 154 kts | 259° |
| 2026-05-05 02:59 | 18.32705 | -65.18653 | 6873 ft | 154 kts | 259° |
| 2026-05-05 02:59 | 18.32507 | -65.19760 | 6748 ft | 154 kts | 259° |
| 2026-05-05 03:00 | 18.32309 | -65.20873 | 6623 ft | 154 kts | 259° |
| 2026-05-05 03:00 | 18.32111 | -65.21986 | 6497 ft | 154 kts | 259° |
| 2026-05-05 03:00 | 18.31916 | -65.23081 | 6374 ft | 154 kts | 259° |
| 2026-05-05 03:00 | 18.31718 | -65.24188 | 6249 ft | 154 kts | 259° |
| 2026-05-05 03:01 | 18.31521 | -65.25296 | 6124 ft | 154 kts | 259° |
| 2026-05-05 03:01 | 18.31323 | -65.26404 | 5998 ft | 154 kts | 259° |
| 2026-05-05 03:01 | 18.31126 | -65.27505 | 5874 ft | 154 kts | 259° |
| 2026-05-05 03:01 | 18.30928 | -65.28613 | 5749 ft | 153 kts | 259° |
| 2026-05-05 03:02 | 18.30732 | -65.29715 | 5624 ft | 153 kts | 259° |
| 2026-05-05 03:02 | 18.30535 | -65.30818 | 5497 ft | 154 kts | 257° |
| 2026-05-05 03:02 | 18.30335 | -65.31945 | 5363 ft | 157 kts | 257° |
| 2026-05-05 03:02 | 18.30134 | -65.33066 | 5242 ft | 158 kts | 257° |
| 2026-05-05 03:03 | 18.29928 | -65.34211 | 5119 ft | 159 kts | 257° |
| 2026-05-05 03:03 | 18.29722 | -65.35359 | 4994 ft | 160 kts | 257° |
| 2026-05-05 03:03 | 18.29516 | -65.36508 | 4870 ft | 160 kts | 257° |
| 2026-05-05 03:03 | 18.29310 | -65.37661 | 4745 ft | 160 kts | 257° |
| 2026-05-05 03:04 | 18.29105 | -65.38803 | 4622 ft | 160 kts | 257° |
| 2026-05-05 03:04 | 18.28898 | -65.39959 | 4497 ft | 160 kts | 257° |
| 2026-05-05 03:04 | 18.28691 | -65.41114 | 4372 ft | 160 kts | 257° |
| 2026-05-05 03:04 | 18.28554 | -65.41881 | 4289 ft | 160 kts | 257° |
| 2026-05-05 03:05 | 18.28380 | -65.42848 | 4184 ft | 160 kts | 257° |
| 2026-05-05 03:05 | 18.28173 | -65.44006 | 4059 ft | 160 kts | 257° |
| 2026-05-05 03:05 | 18.27965 | -65.45164 | 3933 ft | 160 kts | 257° |
| 2026-05-05 03:05 | 18.27758 | -65.46312 | 3808 ft | 159 kts | 257° |
| 2026-05-05 03:06 | 18.27556 | -65.47440 | 3681 ft | 158 kts | 257° |
| 2026-05-05 03:06 | 18.27353 | -65.48570 | 3552 ft | 155 kts | 257° |
| 2026-05-05 03:06 | 18.27155 | -65.49674 | 3421 ft | 150 kts | 257° |
| 2026-05-05 03:06 | 18.26966 | -65.50733 | 3284 ft | 144 kts | 256° |
| 2026-05-05 03:07 | 18.26786 | -65.51735 | 3094 ft | 139 kts | 256° |
| 2026-05-05 03:07 | 18.26607 | -65.52726 | 2889 ft | 137 kts | 256° |
| 2026-05-05 03:07 | 18.26434 | -65.53690 | 2760 ft | 126 kts | 256° |
| 2026-05-05 03:07 | 18.26271 | -65.54591 | 2556 ft | 125 kts | 257° |
| 2026-05-05 03:08 | 18.26117 | -65.55444 | 2421 ft | 116 kts | 258° |
| 2026-05-05 03:08 | 18.26005 | -65.56279 | 2205 ft | 116 kts | 275° |
| 2026-05-05 03:08 | 18.26166 | -65.57099 | 2024 ft | 113 kts | 287° |
| 2026-05-05 03:08 | 18.26336 | -65.57879 | 1824 ft | 108 kts | 287° |
| 2026-05-05 03:09 | 18.26406 | -65.58643 | 1650 ft | 98 kts | 277° |
| 2026-05-05 03:09 | 18.26397 | -65.59343 | 1448 ft | 94 kts | 270° |
| 2026-05-05 03:09 | 18.26301 | -65.60013 | 1237 ft | 91 kts | 266° |
| 2026-05-05 03:09 | 18.26140 | -65.60667 | 992 ft | 93 kts | 257° |
| 2026-05-05 03:10 | 18.25916 | -65.61318 | 743 ft | 96 kts | 249° |
| 2026-05-05 03:10 | 18.25647 | -65.61952 | 513 ft | 95 kts | 240° |
| 2026-05-05 03:10 | 18.25330 | -65.62532 | 268 ft | 91 kts | 232° |
| 2026-05-05 03:10 | 18.24993 | -65.63091 | 66 ft | 84 kts | 234° |
| 2026-05-05 03:11 | 18.24729 | -65.63548 | 44 ft | 53 kts | 237° |
| 2026-05-05 03:11 | 18.24606 | -65.63765 | 44 ft | 31 kts | 235° |
| 2026-05-05 03:11 | 18.24572 | -65.63819 | 44 ft | 0 kts | 238° |
| 2026-05-05 03:14 | 18.24557 | -65.63845 | 44 ft | 20 kts | 239° |
| 2026-05-05 03:14 | 18.24392 | -65.64138 | 44 ft | 70 kts | 236° |
| 2026-05-05 03:14 | 18.24093 | -65.64657 | 90 ft | 91 kts | 235° |
| 2026-05-05 03:14 | 18.23788 | -65.65242 | 255 ft | 90 kts | 238° |
| 2026-05-05 03:15 | 18.23497 | -65.65818 | 435 ft | 88 kts | 238° |
| 2026-05-05 03:15 | 18.23097 | -65.66274 | 557 ft | 87 kts | 197° |
| 2026-05-05 03:15 | 18.22530 | -65.66272 | 747 ft | 79 kts | 166° |
| 2026-05-05 03:15 | 18.21979 | -65.66198 | 911 ft | 81 kts | 167° |
| 2026-05-05 03:16 | 18.21396 | -65.66104 | 1055 ft | 88 kts | 167° |
| 2026-05-05 03:16 | 18.20771 | -65.66060 | 1187 ft | 97 kts | 198° |
| 2026-05-05 03:16 | 18.20409 | -65.66611 | 1284 ft | 97 kts | 277° |
| 2026-05-05 03:16 | 18.20778 | -65.67146 | 1455 ft | 89 kts | 331° |
| 2026-05-05 03:17 | 18.21296 | -65.67508 | 1639 ft | 95 kts | 332° |
| 2026-05-05 03:17 | 18.21876 | -65.67912 | 1758 ft | 105 kts | 332° |
| 2026-05-05 03:17 | 18.22501 | -65.68357 | 1904 ft | 112 kts | 331° |
| 2026-05-05 03:17 | 18.23158 | -65.68832 | 2044 ft | 117 kts | 330° |
| 2026-05-05 03:18 | 18.23841 | -65.69334 | 2189 ft | 121 kts | 329° |
| 2026-05-05 03:18 | 18.24522 | -65.69844 | 2379 ft | 120 kts | 329° |
| 2026-05-05 03:18 | 18.25195 | -65.70357 | 2569 ft | 121 kts | 327° |
| 2026-05-05 03:18 | 18.25874 | -65.70883 | 2763 ft | 121 kts | 326° |
| 2026-05-05 03:19 | 18.27210 | -65.71950 | 3152 ft | 120 kts | 324° |
| 2026-05-05 03:19 | 18.27879 | -65.72499 | 3294 ft | 123 kts | 324° |
| 2026-05-05 03:19 | 18.28550 | -65.73063 | 3441 ft | 123 kts | 325° |
| 2026-05-05 03:20 | 18.29209 | -65.73681 | 3497 ft | 131 kts | 318° |
| 2026-05-05 03:20 | 18.29858 | -65.74367 | 3505 ft | 132 kts | 328° |
| 2026-05-05 03:20 | 18.30650 | -65.74835 | 3508 ft | 130 kts | 336° |
| 2026-05-05 03:20 | 18.31465 | -65.75260 | 3495 ft | 129 kts | 336° |
| 2026-05-05 03:21 | 18.32232 | -65.75712 | 3480 ft | 130 kts | 321° |
| 2026-05-05 03:21 | 18.32587 | -65.76586 | 3505 ft | 132 kts | 284° |
| 2026-05-05 03:21 | 18.32714 | -65.77547 | 3499 ft | 133 kts | 281° |
| 2026-05-05 03:21 | 18.32846 | -65.78520 | 3446 ft | 137 kts | 283° |
| 2026-05-05 03:22 | 18.33096 | -65.79527 | 3271 ft | 146 kts | 292° |
| 2026-05-05 03:22 | 18.33479 | -65.80530 | 3087 ft | 149 kts | 297° |
| 2026-05-05 03:22 | 18.33927 | -65.81510 | 2899 ft | 150 kts | 299° |
| 2026-05-05 03:22 | 18.34403 | -65.82467 | 2704 ft | 147 kts | 300° |
| 2026-05-05 03:23 | 18.34887 | -65.83405 | 2510 ft | 144 kts | 301° |
| 2026-05-05 03:23 | 18.35373 | -65.84324 | 2318 ft | 142 kts | 302° |
| 2026-05-05 03:23 | 18.35924 | -65.85171 | 2138 ft | 138 kts | 314° |
| 2026-05-05 03:23 | 18.36573 | -65.85901 | 2006 ft | 133 kts | 316° |
| 2026-05-05 03:24 | 18.37213 | -65.86569 | 1952 ft | 124 kts | 317° |
| 2026-05-05 03:24 | 18.37784 | -65.87162 | 2000 ft | 111 kts | 317° |
| 2026-05-05 03:24 | 18.38318 | -65.87721 | 1997 ft | 107 kts | 316° |
| 2026-05-05 03:24 | 18.38840 | -65.88263 | 1986 ft | 104 kts | 316° |
| 2026-05-05 03:25 | 18.39351 | -65.88792 | 1982 ft | 102 kts | 317° |
| 2026-05-05 03:25 | 18.39847 | -65.89311 | 1981 ft | 100 kts | 314° |
| 2026-05-05 03:25 | 18.40283 | -65.89877 | 1980 ft | 99 kts | 309° |
| 2026-05-05 03:25 | 18.40562 | -65.90256 | 1979 ft | 98 kts | 309° |
| 2026-05-05 03:26 | 18.41116 | -65.91007 | 1978 ft | 97 kts | 309° |
| 2026-05-05 03:26 | 18.41393 | -65.91386 | 1943 ft | 101 kts | 306° |
| 2026-05-05 03:26 | 18.41939 | -65.92277 | 1763 ft | 114 kts | 303° |
| 2026-05-05 03:26 | 18.42225 | -65.92755 | 1662 ft | 119 kts | 302° |
| 2026-05-05 03:27 | 18.42590 | -65.93557 | 1501 ft | 124 kts | 292° |
| 2026-05-05 03:27 | 18.42995 | -65.94684 | 1286 ft | 120 kts | 290° |
| 2026-05-05 03:27 | 18.43159 | -65.95237 | 1153 ft | 115 kts | 285° |
| 2026-05-05 03:27 | 18.43300 | -65.96045 | 924 ft | 112 kts | 276° |
| 2026-05-05 03:28 | 18.43339 | -65.96854 | 718 ft | 109 kts | 271° |
| 2026-05-05 03:28 | 18.43345 | -65.97640 | 520 ft | 106 kts | 270° |
| 2026-05-05 03:28 | 18.43346 | -65.98408 | 282 ft | 103 kts | 270° |
| 2026-05-05 03:28 | 18.43350 | -65.99136 | 23 ft | 93 kts | 270° |
| 2026-05-05 03:29 | 18.43355 | -65.99719 | 15 ft | 68 kts | 270° |
| 2026-05-05 03:29 | 18.43387 | -65.99927 | 15 ft | 16 kts | 34° |
| 2026-05-05 03:29 | 18.43462 | -65.99824 | 15 ft | 18 kts | 27° |
| 2026-05-05 03:29 | 18.43516 | -65.99817 | 15 ft | 0 kts | 358° |